createdAt,value
2018-04-02T00:01:10.187Z,3.80
2018-04-02T00:03:38.522Z,3.90
2018-04-02T00:06:06.625Z,3.80
2018-04-02T00:08:34.720Z,3.80
2018-04-02T00:11:02.842Z,3.80
2018-04-02T00:13:30.920Z,3.80
2018-04-02T00:15:59.010Z,3.70
2018-04-02T00:18:27.107Z,3.80
2018-04-02T00:20:55.519Z,3.70
2018-04-02T00:23:23.646Z,3.70
2018-04-02T00:25:51.754Z,3.70
2018-04-02T00:28:19.881Z,3.70
2018-04-02T00:30:48.020Z,3.70
2018-04-02T00:33:16.137Z,3.60
2018-04-02T00:35:44.253Z,3.70
2018-04-02T00:38:12.372Z,3.60
2018-04-02T00:40:40.477Z,3.60
2018-04-02T00:43:08.613Z,3.60
2018-04-02T00:45:36.700Z,3.60
2018-04-02T00:48:04.775Z,3.60
2018-04-02T00:50:32.883Z,3.60
2018-04-02T00:53:00.963Z,3.60
2018-04-02T00:55:29.087Z,3.50
2018-04-02T00:57:57.198Z,3.50
2018-04-02T01:00:25.316Z,3.50
2018-04-02T01:02:53.411Z,3.50
2018-04-02T01:05:21.567Z,3.60
2018-04-02T01:07:49.633Z,3.60
2018-04-02T01:10:17.895Z,3.50
2018-04-02T01:12:45.980Z,3.50
2018-04-02T01:15:14.083Z,3.50
2018-04-02T01:17:42.176Z,3.50
2018-04-02T01:20:10.293Z,3.50
2018-04-02T01:22:38.372Z,3.40
2018-04-02T01:25:06.480Z,3.30
2018-04-02T01:27:34.784Z,3.30
2018-04-02T01:30:02.902Z,3.30
2018-04-02T01:32:31.066Z,3.20
2018-04-02T01:34:59.162Z,3.10
2018-04-02T01:37:27.310Z,3.10
2018-04-02T01:39:55.389Z,3.10
2018-04-02T01:42:23.749Z,3.10
2018-04-02T01:44:51.839Z,3.00
2018-04-02T01:47:19.935Z,3.00
2018-04-02T01:49:48.195Z,2.90
2018-04-02T01:52:16.301Z,2.90
2018-04-02T01:54:44.414Z,2.90
2018-04-02T01:57:12.491Z,2.90
2018-04-02T01:59:40.602Z,2.80
2018-04-02T02:02:08.913Z,2.80
2018-04-02T02:04:37.029Z,2.80
2018-04-02T02:07:05.325Z,2.80
2018-04-02T02:09:33.433Z,2.80
2018-04-02T02:12:01.540Z,2.90
2018-04-02T02:14:29.628Z,2.80
2018-04-02T02:16:57.786Z,2.90
2018-04-02T02:19:26.041Z,2.90
2018-04-02T02:21:54.143Z,2.90
2018-04-02T02:24:22.227Z,2.90
2018-04-02T02:26:50.333Z,2.90
2018-04-02T02:29:18.438Z,3.00
2018-04-02T02:31:46.564Z,3.00
2018-04-02T02:34:14.850Z,3.00
2018-04-02T02:36:42.980Z,3.00
2018-04-02T02:39:11.096Z,3.00
2018-04-02T02:41:39.192Z,3.00
2018-04-02T02:44:07.298Z,3.10
2018-04-02T02:46:35.379Z,3.10
2018-04-02T02:49:03.485Z,3.20
2018-04-02T02:51:31.569Z,3.20
2018-04-02T02:53:59.684Z,3.20
2018-04-02T02:56:27.758Z,3.10
2018-04-02T02:58:55.898Z,3.10
2018-04-02T03:01:25.381Z,3.10
2018-04-02T03:03:53.496Z,3.20
2018-04-02T03:06:21.583Z,3.30
2018-04-02T03:08:49.693Z,3.40
2018-04-02T03:11:17.788Z,3.30
2018-04-02T03:13:45.962Z,3.40
2018-04-02T03:16:14.069Z,3.40
2018-04-02T03:18:42.249Z,3.30
2018-04-02T03:21:10.359Z,3.30
2018-04-02T03:23:38.448Z,3.40
2018-04-02T03:26:06.555Z,3.30
2018-04-02T03:28:34.650Z,3.30
2018-04-02T03:31:02.747Z,3.40
2018-04-02T03:33:30.804Z,3.40
2018-04-02T03:35:58.954Z,3.40
2018-04-02T03:38:27.040Z,3.50
2018-04-02T03:40:55.198Z,3.50
2018-04-02T03:43:23.314Z,3.50
2018-04-02T03:45:51.439Z,3.50
2018-04-02T03:48:19.556Z,3.50
2018-04-02T03:50:47.666Z,3.50
2018-04-02T03:53:15.756Z,3.50
2018-04-02T03:55:43.867Z,3.40
2018-04-02T03:58:11.960Z,3.50
2018-04-02T04:00:40.086Z,3.50
2018-04-02T04:03:08.365Z,3.60
2018-04-02T04:05:36.445Z,3.60
2018-04-02T04:08:04.568Z,3.70
2018-04-02T04:10:32.667Z,3.70
2018-04-02T04:13:00.770Z,3.80
2018-04-02T04:15:28.870Z,3.80
2018-04-02T04:17:56.970Z,3.80
2018-04-02T04:20:25.060Z,3.80
2018-04-02T04:22:53.158Z,3.80
2018-04-02T04:25:21.405Z,3.80
2018-04-02T04:27:49.492Z,3.80
2018-04-02T04:30:17.576Z,3.80
2018-04-02T04:32:45.842Z,3.80
2018-04-02T04:35:13.995Z,3.90
2018-04-02T04:37:42.078Z,3.80
2018-04-02T04:40:10.156Z,3.90
2018-04-02T04:42:38.264Z,4.00
2018-04-02T04:45:06.337Z,3.90
2018-04-02T04:47:34.505Z,3.90
2018-04-02T04:50:02.590Z,4.00
2018-04-02T04:52:30.791Z,4.00
2018-04-02T04:54:58.883Z,4.00
2018-04-02T04:57:26.964Z,4.00
2018-04-02T04:59:55.056Z,3.90
2018-04-02T05:02:23.380Z,4.00
2018-04-02T05:04:51.570Z,3.90
2018-04-02T05:07:19.662Z,3.80
2018-04-02T05:09:47.746Z,3.80
2018-04-02T05:12:15.901Z,3.70
2018-04-02T05:14:44.131Z,3.70
2018-04-02T05:17:12.389Z,3.70
2018-04-02T05:19:40.574Z,3.80
2018-04-02T05:22:08.765Z,3.70
2018-04-02T05:24:36.873Z,3.60
2018-04-02T05:27:04.966Z,3.50
2018-04-02T05:29:33.086Z,3.60
2018-04-02T05:32:01.642Z,3.60
2018-04-02T05:34:29.727Z,3.70
2018-04-02T05:36:58.166Z,3.60
2018-04-02T05:39:26.493Z,3.50
2018-04-02T05:41:54.599Z,3.50
2018-04-02T05:44:22.750Z,3.40
2018-04-02T05:46:51.094Z,3.50
2018-04-02T05:49:19.583Z,3.50
2018-04-02T05:51:47.706Z,3.60
2018-04-02T05:54:15.959Z,3.50
2018-04-02T05:56:44.275Z,3.60
2018-04-02T05:59:12.392Z,3.60
2018-04-02T06:01:40.584Z,3.60
2018-04-02T06:04:09.014Z,3.70
2018-04-02T06:06:37.144Z,3.80
2018-04-02T06:09:06.060Z,3.80
2018-04-02T06:11:34.223Z,3.90
2018-04-02T06:14:02.344Z,4.00
2018-04-02T06:16:30.447Z,4.00
2018-04-02T06:18:58.556Z,4.00
2018-04-02T06:21:26.769Z,4.00
2018-04-02T06:23:54.875Z,3.90
2018-04-02T06:26:23.365Z,3.80
2018-04-02T06:28:51.497Z,3.80
2018-04-02T06:31:19.615Z,3.90
2018-04-02T06:33:47.743Z,3.90
2018-04-02T06:36:16.183Z,4.10
2018-04-02T06:38:44.309Z,4.10
2018-04-02T06:41:12.392Z,4.10
2018-04-02T06:43:40.498Z,4.10
2018-04-02T06:46:08.631Z,4.20
2018-04-02T06:48:36.822Z,4.20
2018-04-02T06:51:04.956Z,4.20
2018-04-02T06:53:33.346Z,4.20
2018-04-02T06:56:01.597Z,4.30
2018-04-02T06:58:29.689Z,4.30
2018-04-02T07:00:57.804Z,4.30
2018-04-02T07:03:25.948Z,4.30
2018-04-02T07:05:54.139Z,4.30
2018-04-02T07:08:22.295Z,4.40
2018-04-02T07:10:51.551Z,4.50
2018-04-02T07:13:19.651Z,4.60
2018-04-02T07:15:47.786Z,4.50
2018-04-02T07:18:16.174Z,4.60
2018-04-02T07:20:44.280Z,4.60
2018-04-02T07:23:12.586Z,4.70
2018-04-02T07:25:40.717Z,4.70
2018-04-02T07:28:08.965Z,4.70
2018-04-02T07:30:37.160Z,4.80
2018-04-02T07:33:05.234Z,4.80
2018-04-02T07:35:33.576Z,4.80
2018-04-02T07:38:01.724Z,4.80
2018-04-02T07:40:29.798Z,4.90
2018-04-02T07:42:57.900Z,4.80
2018-04-02T07:45:26.254Z,4.90
2018-04-02T07:47:54.377Z,5.00
2018-04-02T07:50:22.579Z,5.00
2018-04-02T07:52:50.855Z,5.10
2018-04-02T07:55:19.202Z,5.10
2018-04-02T07:57:47.314Z,5.20
2018-04-02T08:00:15.532Z,5.20
2018-04-02T08:02:43.692Z,5.30
2018-04-02T08:05:12.699Z,5.30
2018-04-02T08:07:41.016Z,5.30
2018-04-02T08:10:09.380Z,5.30
2018-04-02T08:12:38.437Z,5.40
2018-04-02T08:15:06.793Z,5.50
2018-04-02T08:17:35.192Z,5.50
2018-04-02T08:20:03.457Z,5.70
2018-04-02T08:22:31.838Z,5.80
2018-04-02T08:25:00.270Z,5.90
2018-04-02T08:27:28.455Z,6.00
2018-04-02T08:29:57.089Z,6.20
2018-04-02T08:32:25.266Z,6.40
2018-04-02T08:34:53.571Z,6.60
2018-04-02T08:37:21.813Z,6.60
2018-04-02T08:39:49.900Z,6.40
2018-04-02T08:42:18.381Z,6.50
2018-04-02T08:44:46.625Z,6.50
2018-04-02T08:47:15.089Z,6.70
2018-04-02T08:49:43.490Z,6.70
2018-04-02T08:52:12.045Z,6.70
2018-04-02T08:54:40.204Z,6.80
2018-04-02T08:57:08.622Z,7.10
2018-04-02T08:59:36.847Z,7.00
2018-04-02T09:02:04.979Z,7.10
2018-04-02T09:04:33.086Z,7.10
2018-04-02T09:07:01.195Z,7.10
2018-04-02T09:09:29.346Z,7.30
2018-04-02T09:11:57.471Z,7.40
2018-04-02T09:14:26.021Z,7.60
2018-04-02T09:16:59.497Z,7.80
2018-04-02T09:19:29.997Z,7.80
2018-04-02T09:21:58.910Z,7.50
2018-04-02T09:24:26.979Z,7.80
2018-04-02T09:26:55.086Z,7.80
2018-04-02T09:29:23.201Z,7.90
2018-04-02T09:31:51.439Z,8.20
2018-04-02T09:34:19.568Z,8.40
2018-04-02T09:36:47.674Z,8.20
2018-04-02T09:39:16.012Z,8.00
2018-04-02T09:41:44.187Z,8.30
2018-04-02T09:44:12.277Z,8.20
2018-04-02T09:46:40.384Z,7.90
2018-04-02T09:49:08.668Z,8.30
2018-04-02T09:51:37.068Z,8.40
2018-04-02T09:54:05.542Z,8.30
2018-04-02T09:56:33.795Z,8.50
2018-04-02T09:59:02.176Z,8.50
2018-04-02T10:01:30.262Z,8.40
2018-04-02T10:03:58.678Z,8.30
2018-04-02T10:06:27.078Z,8.60
2018-04-02T10:08:55.384Z,8.80
2018-04-02T10:11:23.749Z,8.80
2018-04-02T10:13:52.117Z,8.60
2018-04-02T10:16:20.252Z,8.70
2018-04-02T10:18:48.589Z,8.80
2018-04-02T10:21:16.918Z,8.90
2018-04-02T10:23:45.150Z,8.70
2018-04-02T10:26:13.456Z,8.80
2018-04-02T10:28:41.830Z,8.70
2018-04-02T10:31:10.134Z,8.70
2018-04-02T10:33:38.563Z,8.80
2018-04-02T10:36:06.731Z,8.90
2018-04-02T10:38:34.860Z,8.90
2018-04-02T10:41:02.970Z,9.10
2018-04-02T10:43:31.124Z,9.00
2018-04-02T10:45:59.402Z,9.00
2018-04-02T10:48:27.559Z,9.10
2018-04-02T10:50:55.630Z,9.20
2018-04-02T10:53:23.826Z,9.30
2018-04-02T10:55:52.077Z,9.40
2018-04-02T10:58:20.161Z,9.40
2018-04-02T11:00:48.465Z,9.60
2018-04-02T11:03:17.140Z,9.50
2018-04-02T11:05:45.260Z,9.50
2018-04-02T11:08:13.577Z,9.60
2018-04-02T11:10:42.424Z,9.60
2018-04-02T11:13:10.524Z,9.80
2018-04-02T11:15:38.613Z,9.70
2018-04-02T11:18:06.971Z,9.70
2018-04-02T11:20:35.095Z,9.70
2018-04-02T11:23:03.191Z,9.80
2018-04-02T11:25:31.548Z,10.10
2018-04-02T11:27:59.912Z,10.30
2018-04-02T11:30:28.000Z,10.30
2018-04-02T11:32:56.351Z,10.30
2018-04-02T11:35:24.427Z,10.00
2018-04-02T11:37:52.713Z,9.80
2018-04-02T11:40:20.976Z,10.10
2018-04-02T11:42:49.132Z,10.10
2018-04-02T11:45:17.473Z,10.10
2018-04-02T11:47:45.581Z,9.90
2018-04-02T11:50:13.686Z,10.10
2018-04-02T11:52:41.849Z,10.30
2018-04-02T11:55:09.995Z,10.00
2018-04-02T11:57:38.080Z,10.40
2018-04-02T12:00:06.212Z,10.40
2018-04-02T12:02:34.410Z,10.50
2018-04-02T12:05:02.586Z,10.50
2018-04-02T12:07:30.761Z,10.50
2018-04-02T12:09:59.232Z,10.70
2018-04-02T12:12:27.421Z,10.50
2018-04-02T12:14:55.550Z,10.70
2018-04-02T12:17:23.859Z,10.70
2018-04-02T12:19:52.218Z,10.70
2018-04-02T12:22:20.497Z,11.10
2018-04-02T12:24:48.695Z,11.30
2018-04-02T12:27:17.237Z,11.20
2018-04-02T12:29:45.342Z,11.60
2018-04-02T12:32:13.821Z,11.50
2018-04-02T12:34:42.222Z,11.40
2018-04-02T12:37:10.412Z,11.60
2018-04-02T12:39:38.646Z,11.30
2018-04-02T12:42:07.011Z,11.30
2018-04-02T12:44:35.172Z,11.30
2018-04-02T12:47:03.449Z,11.40
2018-04-02T12:49:31.728Z,11.30
2018-04-02T12:51:59.823Z,11.20
2018-04-02T12:54:28.006Z,11.20
2018-04-02T12:56:56.346Z,11.40
2018-04-02T12:59:24.722Z,11.60
2018-04-02T13:01:53.134Z,11.30
2018-04-02T13:04:21.677Z,11.50
2018-04-02T13:06:50.188Z,11.10
2018-04-02T13:09:18.607Z,11.20
2018-04-02T13:11:47.143Z,11.40
2018-04-02T13:14:15.364Z,11.30
2018-04-02T13:16:43.702Z,11.50
2018-04-02T13:19:12.366Z,11.50
2018-04-02T13:21:40.537Z,11.40
2018-04-02T13:24:08.768Z,11.50
2018-04-02T13:26:37.216Z,11.50
2018-04-02T13:29:05.320Z,11.50
2018-04-02T13:31:33.715Z,11.40
2018-04-02T13:34:02.076Z,11.40
2018-04-02T13:36:30.380Z,11.50
2018-04-02T13:38:58.733Z,11.50
2018-04-02T13:41:27.195Z,11.50
2018-04-02T13:43:55.629Z,11.60
2018-04-02T13:46:23.765Z,11.60
2018-04-02T13:48:51.937Z,11.60
2018-04-02T13:51:20.138Z,11.50
2018-04-02T13:53:48.331Z,11.60
2018-04-02T13:56:16.832Z,11.70
2018-04-02T13:58:45.010Z,11.70
2018-04-02T14:01:13.159Z,11.60
2018-04-02T14:03:41.873Z,11.80
2018-04-02T14:06:10.047Z,12.00
2018-04-02T14:08:38.185Z,12.00
2018-04-02T14:11:06.439Z,12.00
2018-04-02T14:13:34.486Z,12.20
2018-04-02T14:16:02.770Z,12.00
2018-04-02T14:18:31.036Z,11.90
2018-04-02T14:20:59.524Z,11.90
2018-04-02T14:23:27.646Z,11.90
2018-04-02T14:25:56.079Z,12.00
2018-04-02T14:28:24.286Z,12.10
2018-04-02T14:30:52.367Z,12.00
2018-04-02T14:33:20.523Z,12.10
2018-04-02T14:35:48.656Z,11.90
2018-04-02T14:38:16.861Z,12.10
2018-04-02T14:40:45.099Z,12.20
2018-04-02T14:43:13.248Z,12.20
2018-04-02T14:45:41.837Z,12.30
2018-04-02T14:48:09.976Z,12.30
2018-04-02T14:50:38.066Z,12.20
2018-04-02T14:53:06.162Z,12.30
2018-04-02T14:55:34.854Z,12.30
2018-04-02T14:58:02.946Z,12.20
2018-04-02T15:00:31.266Z,12.00
2018-04-02T15:02:59.660Z,12.20
2018-04-02T15:05:27.818Z,12.20
2018-04-02T15:07:56.023Z,12.20
2018-04-02T15:10:24.309Z,12.30
2018-04-02T15:12:52.509Z,12.30
2018-04-02T15:15:20.633Z,12.30
2018-04-02T15:17:49.015Z,12.20
2018-04-02T15:20:17.130Z,12.20
2018-04-02T15:22:45.322Z,12.10
2018-04-02T15:25:13.554Z,12.10
2018-04-02T15:27:41.845Z,12.00
2018-04-02T15:30:09.987Z,12.00
2018-04-02T15:32:38.089Z,11.90
2018-04-02T15:35:06.182Z,11.80
2018-04-02T15:37:34.496Z,11.80
2018-04-02T15:40:02.675Z,11.80
2018-04-02T15:42:30.812Z,11.80
2018-04-02T15:44:59.220Z,11.80
2018-04-02T15:47:27.570Z,11.80
2018-04-02T15:49:56.085Z,11.90
2018-04-02T15:52:24.267Z,11.90
2018-04-02T15:54:52.839Z,11.90
2018-04-02T15:57:21.214Z,12.20
2018-04-02T15:59:49.416Z,12.20
2018-04-02T16:02:17.875Z,12.20
2018-04-02T16:04:46.349Z,12.20
2018-04-02T16:07:14.697Z,12.10
2018-04-02T16:09:42.827Z,12.20
2018-04-02T16:12:11.191Z,12.00
2018-04-02T16:14:39.350Z,12.10
2018-04-02T16:17:07.678Z,12.10
2018-04-02T16:19:35.791Z,12.00
2018-04-02T16:22:04.277Z,12.00
2018-04-02T16:24:32.713Z,12.00
2018-04-02T16:27:01.076Z,12.00
2018-04-02T16:29:29.411Z,12.00
2018-04-02T16:31:58.179Z,12.00
2018-04-02T16:34:26.304Z,12.00
2018-04-02T16:36:54.449Z,12.00
2018-04-02T16:39:22.854Z,11.90
2018-04-02T16:41:51.099Z,12.00
2018-04-02T16:44:19.400Z,11.80
2018-04-02T16:46:48.104Z,11.90
2018-04-02T16:49:16.738Z,12.00
2018-04-02T16:51:44.872Z,11.90
2018-04-02T16:54:13.008Z,11.90
2018-04-02T16:56:41.380Z,11.70
2018-04-02T16:59:09.558Z,11.60
2018-04-02T17:01:37.669Z,11.60
2018-04-02T17:04:05.855Z,11.40
2018-04-02T17:06:34.190Z,11.20
2018-04-02T17:09:02.786Z,11.10
2018-04-02T17:11:31.085Z,11.10
2018-04-02T17:13:59.623Z,11.10
2018-04-02T17:16:27.725Z,11.00
2018-04-02T17:18:55.884Z,11.00
2018-04-02T17:21:24.130Z,10.90
2018-04-02T17:23:52.232Z,10.90
2018-04-02T17:26:20.525Z,10.80
2018-04-02T17:28:48.633Z,10.80
2018-04-02T17:31:17.146Z,10.80
2018-04-02T17:33:45.297Z,10.70
2018-04-02T17:36:13.538Z,10.80
2018-04-02T17:38:42.062Z,10.60
2018-04-02T17:41:10.130Z,10.60
2018-04-02T17:43:38.429Z,10.50
2018-04-02T17:46:06.724Z,10.50
2018-04-02T17:48:34.882Z,10.40
2018-04-02T17:51:02.962Z,10.40
2018-04-02T17:53:31.072Z,10.30
2018-04-02T17:55:59.329Z,10.20
2018-04-02T17:58:27.366Z,10.30
2018-04-02T18:00:55.448Z,10.20
2018-04-02T18:03:23.556Z,10.10
2018-04-02T18:05:51.677Z,10.10
2018-04-02T18:08:19.783Z,10.00
2018-04-02T18:10:47.856Z,10.00
2018-04-02T18:13:15.937Z,10.00
2018-04-02T18:15:44.027Z,10.00
2018-04-02T18:18:12.121Z,10.00
2018-04-02T18:20:40.205Z,10.00
2018-04-02T18:23:08.338Z,9.90
2018-04-02T18:25:36.482Z,9.90
2018-04-02T18:28:04.576Z,9.90
2018-04-02T18:30:32.722Z,9.80
2018-04-02T18:33:00.800Z,9.90
2018-04-02T18:35:28.933Z,9.90
2018-04-02T18:37:57.016Z,9.90
2018-04-02T18:40:25.119Z,9.90
2018-04-02T18:42:53.223Z,9.80
2018-04-02T18:45:21.365Z,9.90
2018-04-02T18:47:49.717Z,9.90
2018-04-02T18:50:18.021Z,10.00
2018-04-02T18:52:46.206Z,9.90
2018-04-02T18:55:14.500Z,9.80
2018-04-02T18:57:42.596Z,9.80
2018-04-02T19:00:10.738Z,9.80
2018-04-02T19:02:39.013Z,9.80
2018-04-02T19:05:07.151Z,9.70
2018-04-02T19:07:35.244Z,9.70
2018-04-02T19:10:03.644Z,9.60
2018-04-02T19:12:31.770Z,9.50
2018-04-02T19:14:59.898Z,9.50
2018-04-02T19:17:28.026Z,9.40
2018-04-02T19:19:56.123Z,9.40
2018-04-02T19:22:24.232Z,9.40
2018-04-02T19:24:52.317Z,9.30
2018-04-02T19:27:20.435Z,9.30
2018-04-02T19:29:48.530Z,9.20
2018-04-02T19:32:16.624Z,9.20
2018-04-02T19:34:44.720Z,9.10
2018-04-02T19:37:12.808Z,9.20
2018-04-02T19:39:41.118Z,9.20
2018-04-02T19:42:09.229Z,9.20
2018-04-02T19:44:37.295Z,9.20
2018-04-02T19:47:05.388Z,9.30
2018-04-02T19:49:33.699Z,9.30
2018-04-02T19:52:01.796Z,9.20
2018-04-02T19:54:30.044Z,9.30
2018-04-02T19:56:58.137Z,9.20
2018-04-02T19:59:26.298Z,9.20
2018-04-02T20:01:54.409Z,9.20
2018-04-02T20:04:22.508Z,9.30
2018-04-02T20:06:50.566Z,9.30
2018-04-02T20:09:18.687Z,9.20
2018-04-02T20:11:46.784Z,9.30
2018-04-02T20:14:14.893Z,9.20
2018-04-02T20:16:42.965Z,9.30
2018-04-02T20:19:11.062Z,9.30
2018-04-02T20:21:39.233Z,9.20
2018-04-02T20:24:07.369Z,9.30
2018-04-02T20:26:35.497Z,9.30
2018-04-02T20:29:03.620Z,9.30
2018-04-02T20:31:31.720Z,9.30
2018-04-02T20:33:59.815Z,9.40
2018-04-02T20:36:27.920Z,9.20
2018-04-02T20:38:56.005Z,9.40
2018-04-02T20:41:24.344Z,9.50
2018-04-02T20:43:52.485Z,9.50
2018-04-02T20:46:20.574Z,9.60
2018-04-02T20:48:48.681Z,9.60
2018-04-02T20:51:16.774Z,9.60
2018-04-02T20:53:44.854Z,9.70
2018-04-02T20:56:13.061Z,9.70
2018-04-02T20:58:41.145Z,9.60
2018-04-02T21:01:09.278Z,9.60
2018-04-02T21:03:37.379Z,9.70
2018-04-02T21:06:05.686Z,9.70
2018-04-02T21:08:33.876Z,9.80
2018-04-02T21:11:01.977Z,9.70
2018-04-02T21:13:30.075Z,9.80
2018-04-02T21:15:58.164Z,9.80
2018-04-02T21:18:26.227Z,9.80
2018-04-02T21:20:54.344Z,9.90
2018-04-02T21:23:22.415Z,9.90
2018-04-02T21:25:50.539Z,9.90
2018-04-02T21:28:19.872Z,9.80
2018-04-02T21:30:47.983Z,9.90
2018-04-02T21:33:16.070Z,9.90
2018-04-02T21:35:44.183Z,9.80
2018-04-02T21:38:12.242Z,9.80
2018-04-02T21:40:40.343Z,9.90
2018-04-02T21:43:08.445Z,9.90
2018-04-02T21:45:36.555Z,9.70
2018-04-02T21:48:04.624Z,9.80
2018-04-02T21:50:32.829Z,9.80
2018-04-02T21:53:00.923Z,9.70
2018-04-02T21:55:29.215Z,9.70
2018-04-02T21:57:57.338Z,9.70
2018-04-02T22:00:25.438Z,9.70
2018-04-02T22:02:54.656Z,9.70
2018-04-02T22:05:23.315Z,9.80
2018-04-02T22:07:51.390Z,9.80
2018-04-02T22:10:20.604Z,9.80
2018-04-02T22:12:48.872Z,9.90
2018-04-02T22:15:16.979Z,10.00
2018-04-02T22:17:45.089Z,10.00
2018-04-02T22:20:13.217Z,10.10
2018-04-02T22:22:41.306Z,10.10
2018-04-02T22:25:09.531Z,10.20
2018-04-02T22:27:37.849Z,10.20
2018-04-02T22:30:06.286Z,10.20
2018-04-02T22:32:34.373Z,10.30
2018-04-02T22:35:02.448Z,10.30
2018-04-02T22:37:30.564Z,10.40
2018-04-02T22:39:58.623Z,10.40
2018-04-02T22:42:26.783Z,10.50
2018-04-02T22:44:54.907Z,10.50
2018-04-02T22:47:23.004Z,10.60
2018-04-02T22:49:51.093Z,10.60
2018-04-02T22:52:19.200Z,10.60
2018-04-02T22:54:47.495Z,10.60
2018-04-02T22:57:15.688Z,10.60
2018-04-02T22:59:43.767Z,10.70
2018-04-02T23:02:11.838Z,10.60
2018-04-02T23:04:39.918Z,10.60
2018-04-02T23:07:08.013Z,10.60
2018-04-02T23:09:36.096Z,10.60
2018-04-02T23:12:04.181Z,10.60
2018-04-02T23:14:32.367Z,10.60
2018-04-02T23:17:00.472Z,10.50
2018-04-02T23:19:28.651Z,10.60
2018-04-02T23:21:56.755Z,10.60
2018-04-02T23:24:24.858Z,10.60
2018-04-02T23:26:52.921Z,10.60
2018-04-02T23:29:21.018Z,10.60
2018-04-02T23:31:49.135Z,10.70
2018-04-02T23:34:17.223Z,10.60
2018-04-02T23:36:45.344Z,10.60
2018-04-02T23:39:13.508Z,10.60
2018-04-02T23:41:41.592Z,10.60
2018-04-02T23:44:09.684Z,10.50
2018-04-02T23:46:37.785Z,10.60
2018-04-02T23:49:05.906Z,10.50
2018-04-02T23:51:33.988Z,10.50
2018-04-02T23:54:02.056Z,10.50
2018-04-02T23:56:30.158Z,10.60
2018-04-02T23:58:58.239Z,10.60
